Time;durP1;ratioP1;P1;durP2;ratioP2;P2;SDS_P1;SDS_P2;PMS_P1;PMS_P2;Temp;Humidity;BMP_temperature;BMP_pressure;BME280_temperature;BME280_humidity;BME280_pressure;Samples;Min_cycle;Max_cycle;Signal;HPM_P1;HPM_P2
2022/09/17 00:00:39;;;;;;;20.57;4.07;;;12.20;99.90;;;;;;4958341;28;20278;-67
2022/09/17 00:03:05;;;;;;;17.27;2.80;;;12.20;99.90;;;;;;4957529;28;20306;-67
2022/09/17 00:05:31;;;;;;;18.67;2.97;;;12.20;99.90;;;;;;4957560;28;20373;-67
2022/09/17 00:07:57;;;;;;;19.27;3.47;;;12.10;99.90;;;;;;4957480;28;20771;-67
2022/09/17 00:10:23;;;;;;;18.73;4.33;;;12.20;99.90;;;;;;4957505;28;20114;-67
2022/09/17 00:12:49;;;;;;;16.83;3.07;;;12.20;99.90;;;;;;4957402;28;20050;-67
2022/09/17 00:15:15;;;;;;;15.33;3.47;;;12.10;99.90;;;;;;4957269;28;20299;-67
2022/09/17 00:17:41;;;;;;;14.60;2.87;;;12.20;99.90;;;;;;4957193;28;20282;-67
2022/09/17 00:20:09;;;;;;;19.57;3.90;;;12.10;99.90;;;;;;4957448;28;20592;-67
2022/09/17 00:22:35;;;;;;;14.17;3.17;;;12.10;99.90;;;;;;4957244;28;20051;-67
2022/09/17 00:25:02;;;;;;;13.83;2.77;;;12.10;99.90;;;;;;4957149;28;20286;-67
2022/09/17 00:27:27;;;;;;;14.47;3.67;;;12.00;99.90;;;;;;4976959;28;20329;-67
2022/09/17 00:29:53;;;;;;;19.17;3.70;;;12.00;99.90;;;;;;4995518;28;20699;-67
2022/09/17 00:32:19;;;;;;;20.03;4.43;;;11.90;99.90;;;;;;4996548;28;20128;-67
2022/09/17 00:34:45;;;;;;;18.83;3.23;;;11.90;99.90;;;;;;4995665;28;20438;-69
2022/09/17 00:37:11;;;;;;;17.63;3.33;;;11.90;99.90;;;;;;4995727;28;20129;-67
2022/09/17 00:39:37;;;;;;;15.90;2.93;;;11.90;99.90;;;;;;4995691;28;20380;-67
2022/09/17 00:42:09;;;;;;;19.23;2.90;;;11.80;99.90;;;;;;4995627;28;20054;-67
2022/09/17 00:44:48;;;;;;;21.13;3.63;;;11.80;99.90;;;;;;4995571;28;20081;-67
2022/09/17 00:47:20;;;;;;;19.57;4.07;;;11.80;99.90;;;;;;4995471;28;20307;-67
2022/09/17 00:49:48;;;;;;;21.67;4.00;;;11.80;99.90;;;;;;4996144;28;20286;-67
2022/09/17 00:52:19;;;;;;;18.30;3.10;;;11.80;99.90;;;;;;4995091;28;20851;-67
2022/09/17 00:54:53;;;;;;;15.80;2.97;;;11.90;99.90;;;;;;4995806;28;20293;-67
2022/09/17 00:57:19;;;;;;;20.02;3.17;;;11.90;99.90;;;;;;4994063;28;20273;-67
2022/09/17 00:59:44;;;;;;;14.67;2.70;;;11.90;99.90;;;;;;4995725;28;20053;-67
2022/09/17 01:02:10;;;;;;;18.00;3.10;;;11.90;99.90;;;;;;4994594;28;20475;-67
2022/09/17 01:04:36;;;;;;;14.80;3.20;;;11.90;99.90;;;;;;4994759;28;20046;-67
2022/09/17 01:07:18;;;;;;;15.83;2.77;;;11.90;99.90;;;;;;4995226;28;20289;-67
2022/09/17 01:10:02;;;;;;;17.77;3.23;;;11.90;99.90;;;;;;4994824;28;20459;-67
2022/09/17 01:12:37;;;;;;;14.10;2.70;;;11.90;99.90;;;;;;4995763;28;20321;-67
2022/09/17 01:15:15;;;;;;;10.88;2.13;;;11.90;99.90;;;;;;4995449;28;20309;-68
2022/09/17 01:17:52;;;;;;;15.90;2.47;;;11.90;99.90;;;;;;4995643;28;20046;-67
2022/09/17 01:20:35;;;;;;;12.67;2.30;;;11.90;99.90;;;;;;4994793;28;20396;-67
2022/09/17 01:23:27;;;;;;;13.67;2.37;;;11.90;99.90;;;;;;4995548;28;20618;-67
2022/09/17 01:26:13;;;;;;;16.50;3.00;;;11.90;99.90;;;;;;4967651;28;20290;-67
2022/09/17 01:29:01;;;;;;;21.73;2.70;;;11.90;99.90;;;;;;4995174;28;20344;-67
2022/09/17 01:31:55;;;;;;;16.57;2.67;;;11.90;99.90;;;;;;4993649;28;20300;-67
2022/09/17 01:34:48;;;;;;;16.00;3.13;;;11.90;99.90;;;;;;4979471;28;20309;-67
2022/09/17 01:37:22;;;;;;;13.87;2.50;;;11.90;99.90;;;;;;4995294;28;20600;-67
2022/09/17 01:40:16;;;;;;;22.27;4.03;;;11.90;99.90;;;;;;4994509;28;20360;-67
2022/09/17 01:42:48;;;;;;;16.87;3.07;;;11.90;99.90;;;;;;4994561;28;20270;-67
2022/09/17 01:45:27;;;;;;;15.40;3.13;;;11.90;99.90;;;;;;4994291;28;20756;-67
2022/09/17 01:47:57;;;;;;;14.97;3.33;;;11.80;99.90;;;;;;4994382;28;20282;-68
2022/09/17 01:50:32;;;;;;;19.73;3.73;;;11.80;99.90;;;;;;4993226;28;20320;-67
2022/09/17 01:52:59;;;;;;;16.30;3.05;;;11.80;99.90;;;;;;4994347;28;20416;-67
2022/09/17 01:55:30;;;;;;;16.90;2.60;;;11.80;99.90;;;;;;4994205;28;20050;-67
2022/09/17 01:58:04;;;;;;;16.00;3.10;;;11.70;99.90;;;;;;4994989;28;20280;-68
2022/09/17 02:00:30;;;;;;;20.80;3.10;;;11.80;99.90;;;;;;4994513;28;20345;-67
2022/09/17 02:03:11;;;;;;;19.00;2.90;;;11.80;99.90;;;;;;4994193;28;20293;-67
2022/09/17 02:05:53;;;;;;;15.00;2.93;;;11.70;99.90;;;;;;4994719;28;20285;-67
2022/09/17 02:08:22;;;;;;;14.87;2.97;;;11.70;99.90;;;;;;4992985;28;20752;-67
2022/09/17 02:10:59;;;;;;;14.07;2.33;;;11.60;99.90;;;;;;4994081;28;20281;-67
2022/09/17 02:13:39;;;;;;;18.63;2.97;;;11.60;99.90;;;;;;4994114;28;20297;-67
2022/09/17 02:16:16;;;;;;;17.50;3.10;;;11.60;99.90;;;;;;4994353;28;20273;-68
2022/09/17 02:18:49;;;;;;;14.47;2.60;;;11.60;99.90;;;;;;4994543;28;20622;-67
2022/09/17 02:21:30;;;;;;;17.13;2.57;;;11.60;99.90;;;;;;4994286;28;20282;-67
2022/09/17 02:24:08;;;;;;;15.80;2.40;;;11.60;99.90;;;;;;4994203;28;20301;-67
2022/09/17 02:26:40;;;;;;;15.80;2.40;;;11.50;99.90;;;;;;4993532;28;20777;-67
2022/09/17 02:29:16;;;;;;;15.90;2.67;;;11.50;99.90;;;;;;4993906;28;20666;-67
2022/09/17 02:31:42;;;;;;;11.97;2.10;;;11.40;99.90;;;;;;4993952;28;20278;-67
2022/09/17 02:34:10;;;;;;;15.53;2.53;;;11.40;99.90;;;;;;4994255;28;20762;-67
2022/09/17 02:36:35;;;;;;;15.33;2.67;;;11.30;99.90;;;;;;4994087;28;20053;-67
2022/09/17 02:39:03;;;;;;;15.23;2.90;;;11.30;99.90;;;;;;4993448;28;20689;-67
2022/09/17 02:41:45;;;;;;;12.17;3.27;;;11.30;99.90;;;;;;4993781;28;20045;-67
2022/09/17 02:44:59;;;;;;;14.27;2.37;;;11.30;99.90;;;;;;4994368;28;20292;-67
2022/09/17 02:47:44;;;;;;;15.80;2.87;;;11.20;99.90;;;;;;4940746;28;20796;-67
2022/09/17 02:50:33;;;;;;;14.37;3.20;;;11.30;99.90;;;;;;4994176;28;20286;-67
2022/09/17 02:53:11;;;;;;;13.07;2.20;;;11.30;99.90;;;;;;4993770;28;20336;-67
2022/09/17 02:56:08;;;;;;;13.87;2.30;;;11.30;99.90;;;;;;4994858;28;20316;-67
2022/09/17 02:59:00;;;;;;;11.33;2.37;;;11.30;99.90;;;;;;4991750;28;20292;-67
2022/09/17 03:01:43;;;;;;;16.57;2.80;;;11.30;99.90;;;;;;4993401;28;20289;-67
2022/09/17 03:04:11;;;;;;;18.27;4.00;;;11.30;99.90;;;;;;4993611;28;20314;-67
2022/09/17 03:06:37;;;;;;;19.50;2.53;;;11.30;99.90;;;;;;4994047;28;20281;-67
2022/09/17 03:09:03;;;;;;;16.00;3.30;;;11.30;99.90;;;;;;4993462;28;20288;-67
2022/09/17 03:11:29;;;;;;;13.00;2.70;;;11.30;99.90;;;;;;4993554;28;20448;-67
2022/09/17 03:13:56;;;;;;;14.47;2.50;;;11.30;99.90;;;;;;4993459;28;20120;-67
2022/09/17 03:16:22;;;;;;;12.17;2.30;;;11.20;99.90;;;;;;4993475;28;20344;-67
2022/09/17 03:18:48;;;;;;;14.80;2.73;;;11.20;99.90;;;;;;4993491;28;20277;-67
2022/09/17 03:21:13;;;;;;;15.47;2.97;;;11.10;99.90;;;;;;4993481;28;20078;-67
2022/09/17 03:23:39;;;;;;;16.17;3.63;;;11.20;99.90;;;;;;4993413;28;20497;-67
2022/09/17 03:26:05;;;;;;;13.43;2.90;;;11.20;99.90;;;;;;4994302;28;20043;-67
2022/09/17 03:28:30;;;;;;;12.67;2.30;;;11.10;99.90;;;;;;4996725;28;20086;-67
2022/09/17 03:30:56;;;;;;;10.10;2.17;;;11.10;99.90;;;;;;4996882;28;20141;-67
2022/09/17 03:33:22;;;;;;;7.80;1.40;;;11.10;99.90;;;;;;4996794;28;20049;-66
2022/09/17 03:35:47;;;;;;;10.20;2.20;;;11.10;99.90;;;;;;4996798;28;20522;-66
2022/09/17 03:38:13;;;;;;;17.03;3.10;;;11.10;99.90;;;;;;4997267;28;20050;-66
2022/09/17 03:40:39;;;;;;;12.33;1.77;;;11.20;99.90;;;;;;4995500;28;20046;-67
2022/09/17 03:43:06;;;;;;;11.00;2.27;;;11.20;99.90;;;;;;4996674;28;20069;-67
2022/09/17 03:45:31;;;;;;;8.87;2.23;;;11.20;99.90;;;;;;4996602;28;20054;-67
2022/09/17 03:47:57;;;;;;;14.83;2.37;;;11.20;99.90;;;;;;4995418;28;20440;-67
2022/09/17 03:50:23;;;;;;;10.30;2.13;;;11.20;99.90;;;;;;4996619;28;20048;-67
2022/09/17 03:52:49;;;;;;;10.20;1.83;;;11.20;99.90;;;;;;4997051;28;20053;-67
2022/09/17 03:55:16;;;;;;;16.20;2.20;;;11.20;99.90;;;;;;4996363;28;20297;-67
2022/09/17 03:57:42;;;;;;;17.40;2.20;;;11.20;99.90;;;;;;4996413;28;20050;-67
2022/09/17 04:00:09;;;;;;;9.97;2.17;;;11.20;99.90;;;;;;4996314;28;20289;-67
2022/09/17 04:02:34;;;;;;;14.57;2.20;;;11.10;99.90;;;;;;4996864;28;20282;-67
2022/09/17 04:05:00;;;;;;;21.30;3.03;;;11.10;99.90;;;;;;4995098;28;20278;-67
2022/09/17 04:07:26;;;;;;;17.77;4.00;;;11.10;99.90;;;;;;4996310;28;20054;-67
2022/09/17 04:09:51;;;;;;;18.50;2.93;;;11.10;99.90;;;;;;4996762;28;20552;-67
2022/09/17 04:12:17;;;;;;;12.67;3.03;;;11.00;99.90;;;;;;4995856;28;20517;-67
2022/09/17 04:14:43;;;;;;;13.50;3.43;;;11.10;99.90;;;;;;4996067;28;20046;-67
2022/09/17 04:17:08;;;;;;;14.97;2.60;;;11.10;99.90;;;;;;4995063;28;20096;-67
2022/09/17 04:19:34;;;;;;;17.20;3.03;;;11.10;99.90;;;;;;4996548;28;20120;-67
2022/09/17 04:22:00;;;;;;;15.53;2.67;;;11.00;99.90;;;;;;4996708;28;20111;-67
2022/09/17 04:24:25;;;;;;;13.20;2.50;;;11.00;99.90;;;;;;4995916;28;20046;-67
2022/09/17 04:26:51;;;;;;;13.90;2.80;;;11.10;99.90;;;;;;4994677;28;20065;-67
2022/09/17 04:29:17;;;;;;;16.00;2.77;;;11.00;99.90;;;;;;4995839;28;20137;-67
2022/09/17 04:31:42;;;;;;;13.83;3.53;;;11.10;99.90;;;;;;4996570;28;20054;-67
2022/09/17 04:34:08;;;;;;;16.10;3.23;;;11.10;99.90;;;;;;4995664;28;20489;-67
2022/09/17 04:36:34;;;;;;;13.50;2.47;;;11.00;99.90;;;;;;4995552;28;20050;-67
2022/09/17 04:38:59;;;;;;;17.77;3.90;;;11.00;99.90;;;;;;4994685;28;20046;-67
2022/09/17 04:41:25;;;;;;;14.27;3.27;;;11.00;99.90;;;;;;4995572;28;20042;-67
2022/09/17 04:43:51;;;;;;;12.73;2.47;;;10.90;99.90;;;;;;4995532;28;20053;-67
2022/09/17 04:46:16;;;;;;;14.47;2.70;;;10.90;99.90;;;;;;4995470;28;20450;-67
2022/09/17 04:48:42;;;;;;;9.13;1.60;;;10.90;99.90;;;;;;4995488;28;20062;-67
2022/09/17 04:51:08;;;;;;;12.97;2.77;;;10.90;99.90;;;;;;4995438;28;20042;-67
2022/09/17 04:53:34;;;;;;;11.43;1.97;;;10.90;99.90;;;;;;4995285;28;20304;-67
2022/09/17 04:56:00;;;;;;;8.57;2.23;;;10.90;99.90;;;;;;4994440;28;20491;-67
2022/09/17 04:58:25;;;;;;;11.13;2.00;;;10.80;99.90;;;;;;4995287;28;20050;-67
2022/09/17 05:00:51;;;;;;;10.33;2.53;;;10.90;99.90;;;;;;4996036;28;20503;-67
2022/09/17 05:03:17;;;;;;;10.13;1.80;;;10.80;99.90;;;;;;4995183;28;20050;-67
2022/09/17 05:05:42;;;;;;;12.77;1.90;;;10.80;99.90;;;;;;4995154;28;20568;-67
2022/09/17 05:08:08;;;;;;;13.47;2.03;;;10.80;99.90;;;;;;4994432;28;20050;-67
2022/09/17 05:10:34;;;;;;;15.77;2.27;;;10.70;99.90;;;;;;4994075;28;20045;-67
2022/09/17 05:12:59;;;;;;;15.13;2.97;;;10.70;99.90;;;;;;4995731;28;20046;-67
2022/09/17 05:15:26;;;;;;;13.50;2.07;;;10.70;99.90;;;;;;4994859;28;20113;-67
2022/09/17 05:17:52;;;;;;;11.53;2.23;;;10.70;99.90;;;;;;4994882;28;20090;-67
2022/09/17 05:20:18;;;;;;;14.97;2.80;;;10.70;99.90;;;;;;4994840;28;20288;-67
2022/09/17 05:22:47;;;;;;;12.20;2.53;;;10.70;99.90;;;;;;4995321;28;20282;-67
2022/09/17 05:25:14;;;;;;;12.50;2.67;;;10.70;99.90;;;;;;4994783;28;20277;-67
2022/09/17 05:27:40;;;;;;;11.03;2.80;;;10.70;99.90;;;;;;4993172;28;20306;-67
2022/09/17 05:30:08;;;;;;;14.43;1.93;;;10.70;99.90;;;;;;4994720;28;20289;-67
2022/09/17 05:32:35;;;;;;;12.97;2.30;;;10.70;99.90;;;;;;4994591;28;20638;-67
2022/09/17 05:35:02;;;;;;;12.27;2.47;;;10.70;99.90;;;;;;4994223;28;20766;-67
2022/09/17 05:37:27;;;;;;;9.30;1.90;;;10.70;99.90;;;;;;4994588;28;20325;-67
2022/09/17 05:39:53;;;;;;;7.60;1.67;;;10.80;99.90;;;;;;4994569;28;20324;-67
2022/09/17 05:42:19;;;;;;;13.20;2.33;;;10.80;99.90;;;;;;4992977;28;20054;-67
2022/09/17 05:44:44;;;;;;;10.67;2.03;;;10.90;99.90;;;;;;4994508;28;20050;-67
2022/09/17 05:47:10;;;;;;;12.20;1.80;;;10.90;99.90;;;;;;4994384;28;20089;-67
2022/09/17 05:49:36;;;;;;;9.87;2.53;;;10.80;99.90;;;;;;4993295;28;20061;-67
2022/09/17 05:52:02;;;;;;;13.03;1.87;;;10.90;99.90;;;;;;4994158;28;20125;-67
2022/09/17 05:54:28;;;;;;;12.23;2.50;;;10.90;99.90;;;;;;4994273;28;20047;-67
2022/09/17 05:56:54;;;;;;;14.60;2.50;;;11.00;99.90;;;;;;4994307;28;20331;-67
2022/09/17 05:59:21;;;;;;;13.33;1.97;;;11.00;99.90;;;;;;4994471;28;20369;-67
2022/09/17 06:01:47;;;;;;;6.67;1.60;;;11.10;99.90;;;;;;4994207;28;20046;-67
2022/09/17 06:04:13;;;;;;;15.93;2.43;;;11.20;99.90;;;;;;4994432;28;20277;-67
2022/09/17 06:06:40;;;;;;;15.67;2.70;;;11.30;99.90;;;;;;4994147;28;20491;-67
2022/09/17 06:09:06;;;;;;;11.27;1.70;;;;;;;;;;4994081;28;20296;-67
2022/09/17 06:11:32;;;;;;;7.60;1.33;;;11.30;99.90;;;;;;4993968;28;20375;-67
2022/09/17 06:13:58;;;;;;;9.70;1.60;;;11.50;99.90;;;;;;4993666;28;20325;-67
2022/09/17 06:16:23;;;;;;;8.70;1.70;;;11.60;99.90;;;;;;4994448;28;20054;-67
2022/09/17 06:18:51;;;;;;;9.80;1.63;;;11.60;99.90;;;;;;4994233;28;20168;-67
2022/09/17 06:21:18;;;;;;;10.40;1.77;;;11.60;99.90;;;;;;4994766;28;20077;-67
2022/09/17 06:23:44;;;;;;;13.93;2.10;;;11.50;99.90;;;;;;4993326;28;20353;-67
2022/09/17 06:26:10;;;;;;;15.50;2.57;;;11.50;99.90;;;;;;4993966;28;20334;-67
2022/09/17 06:28:36;;;;;;;10.80;1.43;;;11.50;99.90;;;;;;4993428;28;20084;-66
2022/09/17 06:31:04;;;;;;;11.93;1.60;;;11.40;99.90;;;;;;4993279;28;20621;-66
2022/09/17 06:33:31;;;;;;;10.07;1.90;;;11.50;99.90;;;;;;4992446;28;20054;-66
2022/09/17 06:36:01;;;;;;;10.03;1.40;;;11.50;99.90;;;;;;4993863;28;20286;-66
2022/09/17 06:38:28;;;;;;;10.43;1.70;;;11.50;99.90;;;;;;4994382;28;20308;-66
2022/09/17 06:40:54;;;;;;;9.30;2.10;;;11.70;99.90;;;;;;4993784;28;20292;-66
2022/09/17 06:43:21;;;;;;;13.37;2.33;;;11.80;99.90;;;;;;4994271;28;20278;-66
2022/09/17 06:45:54;;;;;;;8.73;1.80;;;11.90;99.90;;;;;;4993770;28;20289;-66
2022/09/17 06:48:20;;;;;;;12.83;2.50;;;11.90;99.90;;;;;;4993721;28;20364;-66
2022/09/17 06:50:47;;;;;;;10.90;1.70;;;11.80;99.90;;;;;;4993761;28;20293;-66
2022/09/17 06:53:12;;;;;;;12.93;2.03;;;12.00;99.90;;;;;;4993731;28;20277;-67
2022/09/17 06:55:38;;;;;;;9.83;1.90;;;12.80;99.90;;;;;;4993728;28;20289;-66
2022/09/17 06:58:04;;;;;;;10.40;2.33;;;13.60;99.90;;;;;;4993729;28;20491;-67
2022/09/17 07:00:30;;;;;;;7.13;1.43;;;15.80;99.90;;;;;;4993639;28;20050;-67
2022/09/17 07:02:57;;;;;;;14.33;2.30;;;15.80;99.90;;;;;;4997682;28;20189;-66
2022/09/17 07:05:24;;;;;;;10.47;1.90;;;16.00;99.90;;;;;;4996678;28;20293;-66
2022/09/17 07:07:50;;;;;;;10.70;1.97;;;15.60;99.90;;;;;;4997301;28;20348;-66
2022/09/17 07:10:16;;;;;;;9.80;1.73;;;15.40;99.90;;;;;;4997272;28;20285;-67
2022/09/17 07:12:43;;;;;;;8.57;1.60;;;15.00;99.90;;;;;;4997826;28;20293;-67
2022/09/17 07:15:14;;;;;;;9.60;2.20;;;14.60;99.90;;;;;;4997189;28;20298;-67
2022/09/17 07:17:43;;;;;;;7.83;1.83;;;15.90;99.90;;;;;;4997677;28;20266;-67
2022/09/17 07:20:09;;;;;;;10.13;2.23;;;17.40;99.90;;;;;;4997009;28;20766;-67
2022/09/17 07:22:35;;;;;;;11.77;2.20;;;18.70;99.90;;;;;;4995778;28;20816;-67
2022/09/17 07:25:01;;;;;;;11.63;2.10;;;18.90;99.90;;;;;;4997761;28;20332;-67
2022/09/17 07:27:28;;;;;;;9.17;2.03;;;19.70;99.90;;;;;;4995672;28;20503;-67
2022/09/17 07:29:54;;;;;;;15.57;2.67;;;20.20;99.90;;;;;;4979820;28;20061;-67
2022/09/17 07:32:20;;;;;;;11.00;1.60;;;19.40;95.40;;;;;;4996936;28;20047;-67
2022/09/17 07:34:46;;;;;;;5.63;1.40;;;19.00;99.90;;;;;;4979443;28;20046;-67
2022/09/17 07:37:11;;;;;;;6.13;1.43;;;17.40;99.90;;;;;;4997103;28;20133;-66
2022/09/17 07:39:37;;;;;;;4.90;1.23;;;16.60;99.90;;;;;;4997263;28;20086;-67
2022/09/17 07:42:03;;;;;;;7.17;1.67;;;15.70;99.90;;;;;;4996979;28;20482;-67
2022/09/17 07:44:30;;;;;;;10.03;1.33;;;15.20;99.90;;;;;;4996010;28;20038;-67
2022/09/17 07:46:56;;;;;;;7.20;1.50;;;14.90;99.90;;;;;;4997181;28;20054;-67
2022/09/17 07:49:21;;;;;;;6.93;1.37;;;14.80;99.90;;;;;;4995448;28;20160;-67
2022/09/17 07:51:47;;;;;;;6.10;2.00;;;14.80;99.90;;;;;;4996604;28;20053;-67
2022/09/17 07:54:13;;;;;;;14.80;2.20;;;14.80;99.90;;;;;;4996748;28;20097;-67
2022/09/17 07:56:39;;;;;;;7.90;1.57;;;14.60;99.90;;;;;;4996584;28;20042;-67
2022/09/17 07:59:04;;;;;;;13.40;2.60;;;14.30;99.90;;;;;;4996494;28;20484;-67
2022/09/17 08:01:33;;;;;;;8.63;2.00;;;14.20;99.90;;;;;;4995447;28;20042;-67
2022/09/17 08:03:59;;;;;;;8.20;1.60;;;14.30;99.90;;;;;;4995092;28;20050;-67
2022/09/17 08:06:27;;;;;;;11.87;2.03;;;14.40;99.90;;;;;;4995042;28;20056;-67
2022/09/17 08:08:53;;;;;;;8.73;1.77;;;14.50;99.90;;;;;;4995275;28;20096;-69
2022/09/17 08:11:21;;;;;;;6.30;1.40;;;14.60;99.90;;;;;;4996251;28;20394;-67
2022/09/17 08:13:48;;;;;;;10.93;1.93;;;14.70;99.90;;;;;;4995871;28;20298;-67
2022/09/17 08:16:15;;;;;;;8.80;2.07;;;14.80;99.90;;;;;;4996100;28;20289;-67
2022/09/17 08:18:42;;;;;;;6.50;1.50;;;14.80;99.90;;;;;;4996004;28;20281;-67
2022/09/17 08:21:11;;;;;;;11.67;2.13;;;14.80;99.90;;;;;;4995597;28;20285;-68
2022/09/17 08:23:38;;;;;;;19.37;4.57;;;14.70;99.90;;;;;;4995814;28;20368;-69
2022/09/17 08:26:07;;;;;;;11.43;2.07;;;14.40;99.90;;;;;;4995647;28;20281;-67
2022/09/17 08:28:34;;;;;;;10.57;2.10;;;14.10;99.90;;;;;;4994457;28;20344;-67
2022/09/17 08:31:05;;;;;;;8.37;1.80;;;13.90;99.90;;;;;;4996058;28;20281;-67
2022/09/17 08:33:38;;;;;;;7.67;1.50;;;13.60;99.90;;;;;;4996534;28;20344;-67
2022/09/17 08:36:06;;;;;;;5.33;1.10;;;13.40;99.90;;;;;;4994820;28;20296;-67
2022/09/17 08:38:33;;;;;;;5.20;1.10;;;13.30;99.90;;;;;;4995632;28;20284;-67
2022/09/17 08:41:02;;;;;;;7.93;1.23;;;13.10;99.90;;;;;;4995869;28;20289;-67
2022/09/17 08:43:30;;;;;;;5.30;1.40;;;13.10;99.90;;;;;;4995574;28;20286;-67
2022/09/17 08:45:57;;;;;;;7.83;1.30;;;13.10;99.90;;;;;;4995122;28;20775;-66
2022/09/17 08:48:27;;;;;;;8.87;1.33;;;13.20;99.90;;;;;;4995902;28;20324;-67
2022/09/17 08:50:53;;;;;;;9.87;1.83;;;13.30;99.90;;;;;;4995400;28;20281;-67
2022/09/17 08:54:03;;;;;;;9.07;1.70;;;13.40;99.90;;;;;;4995354;28;20277;-67
2022/09/17 08:56:32;;;;;;;15.77;2.27;;;13.60;99.90;;;;;;4935269;29;20050;-67
2022/09/17 08:59:17;;;;;;;11.33;2.07;;;13.70;99.90;;;;;;4935035;29;20292;-67
2022/09/17 09:02:21;;;;;;;12.77;1.95;;;13.90;99.90;;;;;;4948527;28;20309;-67
2022/09/17 09:05:20;;;;;;;11.53;2.40;;;14.00;99.90;;;;;;4995740;28;20050;-67
2022/09/17 09:07:51;;;;;;;14.00;3.00;;;14.10;99.90;;;;;;4995790;28;20282;-67
2022/09/17 09:10:23;;;;;;;11.37;1.77;;;13.80;99.90;;;;;;4995628;28;20273;-66
2022/09/17 09:12:51;;;;;;;6.63;1.63;;;13.50;99.90;;;;;;4994962;28;20456;-66
2022/09/17 09:15:20;;;;;;;7.23;1.33;;;13.30;99.90;;;;;;4995176;28;20305;-66
2022/09/17 09:17:47;;;;;;;8.57;1.70;;;13.10;99.90;;;;;;4994914;28;20777;-66
2022/09/17 09:20:18;;;;;;;4.47;1.30;;;13.10;99.90;;;;;;4995170;28;20337;-66
2022/09/17 09:22:49;;;;;;;8.00;1.93;;;13.10;99.90;;;;;;4994968;28;20281;-66
2022/09/17 09:25:22;;;;;;;6.20;1.47;;;13.10;99.90;;;;;;4994170;28;20286;-66
2022/09/17 09:27:59;;;;;;;11.97;2.33;;;13.20;99.90;;;;;;4994431;28;20356;-66
2022/09/17 09:30:34;;;;;;;16.73;2.80;;;13.30;99.90;;;;;;4993621;28;20290;-67
2022/09/17 09:33:13;;;;;;;14.18;3.17;;;13.10;99.90;;;;;;4995064;28;20296;-67
2022/09/17 09:35:42;;;;;;;11.30;2.50;;;12.90;99.90;;;;;;4994712;28;20034;-66
2022/09/17 09:38:32;;;;;;;9.93;2.10;;;12.70;99.90;;;;;;4994683;28;20363;-67
2022/09/17 09:41:23;;;;;;;9.77;1.93;;;12.60;99.90;;;;;;4995363;28;20294;-66
2022/09/17 09:44:10;;;;;;;11.97;2.43;;;12.60;99.90;;;;;;4994607;28;20285;-67
2022/09/17 09:47:03;;;;;;;11.07;1.70;;;12.60;99.90;;;;;;4994548;28;20273;-67
2022/09/17 09:49:35;;;;;;;10.43;2.23;;;12.70;99.90;;;;;;4994440;28;20278;-67
2022/09/17 09:52:26;;;;;;;9.27;1.67;;;12.70;99.90;;;;;;4994634;28;20288;-67
2022/09/17 09:55:04;;;;;;;8.23;1.57;;;12.90;99.90;;;;;;4994151;28;20308;-67
2022/09/17 09:57:45;;;;;;;9.93;1.60;;;13.00;99.90;;;;;;4994834;28;20278;-67
2022/09/17 10:00:31;;;;;;;10.47;2.63;;;13.30;99.90;;;;;;4994717;28;20288;-67
2022/09/17 10:03:09;;;;;;;12.37;2.53;;;13.40;99.90;;;;;;4994461;28;20282;-67
2022/09/17 10:05:35;;;;;;;10.77;2.47;;;13.40;99.90;;;;;;4994473;28;20300;-66
2022/09/17 10:08:13;;;;;;;10.03;2.33;;;13.30;99.90;;;;;;4994332;28;20753;-67
2022/09/17 10:11:01;;;;;;;10.93;2.10;;;13.30;99.90;;;;;;4992926;28;20054;-67
2022/09/17 10:13:30;;;;;;;12.33;1.90;;;13.40;99.90;;;;;;4993448;28;20356;-66
2022/09/17 10:15:56;;;;;;;11.40;1.57;;;13.30;99.90;;;;;;4994731;28;20352;-66
2022/09/17 10:18:24;;;;;;;11.03;1.60;;;13.30;99.90;;;;;;4993981;28;20649;-66
2022/09/17 10:20:53;;;;;;;8.37;1.90;;;13.30;99.90;;;;;;4993956;28;20046;-67
2022/09/17 10:23:24;;;;;;;11.27;1.83;;;13.40;99.90;;;;;;4994139;28;20837;-66
2022/09/17 10:25:51;;;;;;;8.73;1.73;;;13.40;99.90;;;;;;4994540;28;20366;-66
2022/09/17 10:28:50;;;;;;;16.27;2.03;;;13.50;99.90;;;;;;4994187;28;20698;-66
2022/09/17 10:31:16;;;;;;;9.53;1.37;;;13.70;99.90;;;;;;4994453;28;20413;-66
2022/09/17 10:34:01;;;;;;;8.33;1.53;;;13.70;99.90;;;;;;4992592;28;20388;-66
2022/09/17 10:36:38;;;;;;;10.05;1.50;;;13.60;99.90;;;;;;4997963;28;20046;-66
2022/09/17 10:39:43;;;;;;;10.13;1.50;;;13.50;99.90;;;;;;4998063;28;20546;-66
2022/09/17 10:42:16;;;;;;;9.87;1.93;;;13.60;99.90;;;;;;4967668;28;20294;-66
2022/09/17 10:44:56;;;;;;;12.67;1.93;;;13.60;99.90;;;;;;4997805;28;20278;-67
2022/09/17 10:47:28;;;;;;;15.80;2.80;;;13.60;99.90;;;;;;4997722;28;20729;-66
2022/09/17 10:50:03;;;;;;;14.17;2.30;;;13.70;99.90;;;;;;4998522;28;20611;-66
2022/09/17 10:52:35;;;;;;;16.77;1.83;;;14.00;99.90;;;;;;4997967;28;20359;-66
2022/09/17 10:55:14;;;;;;;9.70;1.97;;;14.00;99.90;;;;;;4996338;28;20050;-66
2022/09/17 10:58:06;;;;;;;7.73;1.80;;;14.10;99.90;;;;;;4997814;28;20281;-66
2022/09/17 11:00:46;;;;;;;10.07;1.93;;;14.10;99.90;;;;;;4997139;28;20773;-66
2022/09/17 11:03:47;;;;;;;12.70;2.10;;;13.90;99.90;;;;;;4997473;28;20292;-66
2022/09/17 11:06:39;;;;;;;13.33;2.20;;;13.70;99.90;;;;;;4946722;28;20297;-66
2022/09/17 11:09:22;;;;;;;11.90;2.13;;;13.50;99.90;;;;;;4997276;28;20372;-66
2022/09/17 11:11:51;;;;;;;8.73;2.17;;;13.20;99.90;;;;;;4997747;28;20677;-66
2022/09/17 11:14:48;;;;;;;12.73;2.13;;;13.10;99.90;;;;;;4997964;28;20301;-66
2022/09/17 11:17:30;;;;;;;12.07;2.17;;;13.00;99.90;;;;;;4998065;28;20313;-66
2022/09/17 11:20:15;;;;;;;8.83;1.80;;;13.10;99.90;;;;;;4997460;28;20336;-66
2022/09/17 11:22:50;;;;;;;10.03;1.80;;;13.10;99.90;;;;;;4997123;28;20373;-66
2022/09/17 11:25:18;;;;;;;10.88;2.00;;;13.20;99.90;;;;;;4996031;28;20292;-66
2022/09/17 11:27:50;;;;;;;14.13;2.33;;;13.30;99.90;;;;;;4996857;28;20058;-66
2022/09/17 11:30:22;;;;;;;11.50;2.43;;;13.50;99.90;;;;;;4997830;28;20348;-66
2022/09/17 11:33:05;;;;;;;10.23;2.10;;;13.50;99.90;;;;;;4997675;28;20282;-66
2022/09/17 11:35:37;;;;;;;16.27;2.37;;;13.50;99.90;;;;;;4997492;28;20352;-66
2022/09/17 11:38:12;;;;;;;13.77;2.13;;;13.30;99.90;;;;;;4997033;28;20335;-66
2022/09/17 11:40:40;;;;;;;16.48;2.70;;;13.30;99.90;;;;;;4996935;28;20293;-66
2022/09/17 11:43:34;;;;;;;14.60;2.63;;;13.20;99.90;;;;;;4996891;28;20061;-66
2022/09/17 11:46:13;;;;;;;16.23;2.60;;;13.20;99.90;;;;;;4992976;28;20290;-66
2022/09/17 11:48:45;;;;;;;15.13;2.60;;;13.30;99.90;;;;;;4996670;28;20368;-66
2022/09/17 11:51:19;;;;;;;19.90;2.77;;;13.30;99.90;;;;;;4995688;28;20305;-66
2022/09/17 11:53:54;;;;;;;16.33;3.88;;;13.40;99.90;;;;;;4996883;28;20365;-66
2022/09/17 11:56:32;;;;;;;11.57;2.60;;;13.40;99.90;;;;;;4996589;28;20046;-66
2022/09/17 11:59:13;;;;;;;14.00;2.70;;;13.50;99.90;;;;;;4996304;28;20042;-67
2022/09/17 12:01:56;;;;;;;11.97;2.23;;;13.40;99.90;;;;;;4996770;28;20300;-66
2022/09/17 12:04:47;;;;;;;19.17;3.40;;;13.40;99.90;;;;;;4996988;28;20277;-66
2022/09/17 12:07:37;;;;;;;16.10;3.20;;;13.40;99.90;;;;;;4997202;28;20360;-66
2022/09/17 12:10:34;;;;;;;15.57;2.90;;;13.40;99.90;;;;;;4996308;28;20320;-66
2022/09/17 12:13:08;;;;;;;14.77;3.37;;;13.50;99.90;;;;;;4996221;28;20350;-67
2022/09/17 12:15:38;;;;;;;14.73;3.00;;;13.60;99.90;;;;;;4996085;28;20301;-66
2022/09/17 12:18:21;;;;;;;19.27;2.67;;;13.80;99.90;;;;;;4995997;28;20057;-66
2022/09/17 12:20:51;;;;;;;17.50;3.80;;;14.00;99.90;;;;;;4996601;28;20321;-66
2022/09/17 12:23:42;;;;;;;15.07;2.80;;;14.10;99.90;;;;;;4994712;28;20379;-66
2022/09/17 12:26:13;;;;;;;18.77;3.57;;;14.40;99.90;;;;;;4995886;28;20313;-66
2022/09/17 12:28:50;;;;;;;12.30;2.67;;;14.40;99.90;;;;;;4995601;28;20638;-66
2022/09/17 12:31:33;;;;;;;13.53;4.63;;;14.40;99.90;;;;;;4996235;28;20665;-66
2022/09/17 12:34:26;;;;;;;12.10;2.57;;;14.20;99.90;;;;;;4996517;28;20329;-66
2022/09/17 12:37:07;;;;;;;13.10;3.17;;;14.00;99.90;;;;;;4995740;28;20369;-66
2022/09/17 12:39:32;;;;;;;12.10;2.37;;;13.90;99.90;;;;;;4996212;28;20316;-66
2022/09/17 12:42:17;;;;;;;17.17;2.40;;;13.80;99.90;;;;;;4995601;28;20289;-66
2022/09/17 12:45:06;;;;;;;16.15;4.07;;;13.80;99.90;;;;;;4996104;28;20042;-66
2022/09/17 12:47:41;;;;;;;18.03;3.00;;;13.70;99.90;;;;;;4994206;28;20046;-66
2022/09/17 12:50:22;;;;;;;17.67;2.85;;;13.70;99.90;;;;;;4995569;28;20758;-66
2022/09/17 12:53:14;;;;;;;15.67;3.17;;;13.70;99.90;;;;;;4996462;28;20057;-66
2022/09/17 12:55:55;;;;;;;15.53;2.83;;;13.80;99.90;;;;;;4995887;28;20619;-67
2022/09/17 12:58:39;;;;;;;20.60;4.20;;;13.80;99.90;;;;;;4995406;28;20281;-67
2022/09/17 13:01:12;;;;;;;16.33;3.07;;;14.00;99.90;;;;;;4995315;28;20286;-67
2022/09/17 13:03:58;;;;;;;12.57;2.73;;;14.10;99.90;;;;;;4995800;28;20269;-66